Terminal Aerodrome Forecast
Issued by NWS

Home | Current Version | Previous Version | Text Only | Print | Product List | Glossary On
Versions: 1 2 3 4 5 6 7 8 9 10 11 12 13 14 15 16
756
FTUS43 KICT 221735
TAFCNU
TAF
KCNU 221735Z 2218/2318 22008KT P6SM BKN150
     FM222000 21008KT P6SM VCTS SCT035CB BKN080
     FM230200 VRB05KT P6SM BKN050
     FM230600 08004KT P6SM VCSH OVC060
     FM230900 VRB03KT P6SM VCSH OVC030
     FM231200 31006KT P6SM BKN025
     FM231600 34009KT P6SM FEW030=

USA.gov is the U.S. government's official web portal to all federal, state and local government web resources and services.